createdAt,value
2017-07-05T00:01:40.003Z,55.60
2017-07-05T00:04:07.560Z,56.03
2017-07-05T00:06:35.309Z,56.15
2017-07-05T00:09:02.931Z,56.65
2017-07-05T00:11:30.524Z,56.94
2017-07-05T00:13:58.345Z,57.11
2017-07-05T00:16:25.962Z,57.05
2017-07-05T00:18:53.513Z,57.23
2017-07-05T00:21:21.129Z,57.18
2017-07-05T00:23:48.707Z,57.11
2017-07-05T00:26:16.442Z,56.99
2017-07-05T00:28:44.107Z,57.00
2017-07-05T00:31:11.902Z,57.45
2017-07-05T00:33:39.495Z,57.53
2017-07-05T00:36:07.760Z,57.42
2017-07-05T00:38:35.383Z,57.12
2017-07-05T00:41:02.941Z,59.21
2017-07-05T00:43:30.686Z,59.08
2017-07-05T00:45:58.309Z,58.44
2017-07-05T00:48:26.574Z,58.36
2017-07-05T00:50:54.981Z,58.35
2017-07-05T00:53:22.608Z,58.25
2017-07-05T00:55:50.696Z,58.22
2017-07-05T00:58:18.434Z,58.10
2017-07-05T01:00:46.034Z,58.54
2017-07-05T01:03:13.589Z,57.18
2017-07-05T01:05:41.235Z,56.95
2017-07-05T01:08:09.793Z,57.37
2017-07-05T01:10:37.542Z,58.12
2017-07-05T01:13:05.348Z,58.83
2017-07-05T01:15:32.927Z,59.12
2017-07-05T01:18:00.533Z,57.50
2017-07-05T01:20:28.077Z,58.07
2017-07-05T01:22:55.736Z,58.38
2017-07-05T01:25:23.334Z,59.32
2017-07-05T01:27:50.886Z,58.84
2017-07-05T01:30:18.573Z,59.54
2017-07-05T01:32:46.186Z,59.24
2017-07-05T01:35:13.782Z,59.18
2017-07-05T01:37:41.355Z,59.54
2017-07-05T01:40:08.949Z,59.26
2017-07-05T01:42:36.502Z,59.33
2017-07-05T01:45:04.211Z,58.85
2017-07-05T01:47:31.779Z,58.38
2017-07-05T01:49:59.565Z,58.18
2017-07-05T01:52:27.244Z,58.06
2017-07-05T01:54:55.113Z,58.01
2017-07-05T01:57:22.673Z,57.64
2017-07-05T01:59:50.260Z,57.27
2017-07-05T02:02:17.845Z,58.35
2017-07-05T02:04:45.459Z,57.97
2017-07-05T02:07:13.096Z,58.44
2017-07-05T02:09:40.751Z,58.88
2017-07-05T02:12:08.512Z,59.40
2017-07-05T02:14:36.280Z,60.65
2017-07-05T02:17:03.889Z,62.72
2017-07-05T02:19:31.437Z,63.01
2017-07-05T02:21:59.078Z,63.39
2017-07-05T02:24:26.677Z,63.03
2017-07-05T02:26:54.283Z,63.33
2017-07-05T02:29:22.094Z,63.36
2017-07-05T02:31:49.743Z,62.98
2017-07-05T02:34:17.391Z,62.85
2017-07-05T02:36:45.007Z,62.81
2017-07-05T02:39:12.597Z,62.40
2017-07-05T02:41:40.392Z,61.71
2017-07-05T02:44:07.981Z,61.20
2017-07-05T02:46:35.583Z,61.40
2017-07-05T02:49:03.192Z,60.96
2017-07-05T02:51:30.966Z,60.99
2017-07-05T02:53:58.575Z,60.55
2017-07-05T02:56:26.317Z,61.21
2017-07-05T02:58:53.940Z,61.09
2017-07-05T03:01:21.595Z,61.45
2017-07-05T03:03:49.156Z,61.58
2017-07-05T03:06:16.761Z,60.87
2017-07-05T03:08:44.845Z,60.48
2017-07-05T03:11:12.755Z,61.13
2017-07-05T03:13:40.281Z,61.11
2017-07-05T03:16:07.920Z,61.27
2017-07-05T03:18:35.503Z,60.59
2017-07-05T03:21:03.050Z,59.88
2017-07-05T03:23:30.619Z,60.68
2017-07-05T03:25:58.505Z,60.20
2017-07-05T03:28:26.262Z,60.41
2017-07-05T03:30:54.332Z,60.73
2017-07-05T03:33:23.817Z,61.20
2017-07-05T03:35:51.617Z,61.21
2017-07-05T03:38:19.314Z,60.67
2017-07-05T03:40:47.310Z,59.98
2017-07-05T03:43:15.960Z,59.48
2017-07-05T03:45:43.758Z,59.59
2017-07-05T03:48:12.239Z,59.68
2017-07-05T03:50:40.069Z,59.93
2017-07-05T03:53:07.997Z,59.85
2017-07-05T03:55:35.605Z,59.88
2017-07-05T03:58:03.174Z,60.09
2017-07-05T04:00:30.787Z,60.41
2017-07-05T04:02:58.743Z,60.74
2017-07-05T04:05:26.949Z,60.75
2017-07-05T04:07:54.938Z,60.75
2017-07-05T04:10:22.534Z,60.47
2017-07-05T04:12:50.113Z,60.40
2017-07-05T04:15:17.717Z,60.28
2017-07-05T04:17:45.246Z,59.97
2017-07-05T04:20:12.787Z,60.16
2017-07-05T04:22:40.378Z,59.56
2017-07-05T04:25:07.915Z,58.90
2017-07-05T04:27:35.492Z,58.79
2017-07-05T04:30:05.570Z,58.90
2017-07-05T04:32:33.142Z,58.22
2017-07-05T04:35:00.738Z,54.24
2017-07-05T04:37:28.355Z,51.97
2017-07-05T04:39:55.884Z,50.96
2017-07-05T04:42:23.437Z,49.61
2017-07-05T04:44:51.025Z,48.58
2017-07-05T04:47:18.570Z,48.88
2017-07-05T04:49:46.198Z,48.80
2017-07-05T04:52:13.858Z,48.75
2017-07-05T04:54:41.469Z,48.18
2017-07-05T04:57:09.021Z,47.03
2017-07-05T04:59:37.614Z,45.00
2017-07-05T05:02:05.213Z,50.24
2017-07-05T05:04:32.740Z,52.92
2017-07-05T05:07:00.513Z,54.01
2017-07-05T05:09:28.152Z,54.23
2017-07-05T05:11:55.706Z,55.28
2017-07-05T05:14:23.993Z,55.93
2017-07-05T05:16:51.587Z,56.30
2017-07-05T05:19:19.160Z,56.37
2017-07-05T05:21:46.725Z,55.43
2017-07-05T05:24:14.342Z,56.73
2017-07-05T05:26:41.913Z,55.93
2017-07-05T05:29:09.496Z,56.28
2017-07-05T05:31:37.079Z,55.76
2017-07-05T05:34:04.649Z,55.82
2017-07-05T05:36:32.219Z,54.66
2017-07-05T05:38:59.830Z,55.20
2017-07-05T05:41:27.392Z,54.74
2017-07-05T05:43:55.201Z,54.52
2017-07-05T05:46:23.026Z,53.98
2017-07-05T05:48:50.584Z,53.82
2017-07-05T05:51:18.952Z,52.12
2017-07-05T05:53:46.757Z,52.29
2017-07-05T05:56:14.383Z,52.01
2017-07-05T05:58:41.970Z,51.11
2017-07-05T06:01:09.569Z,50.51
2017-07-05T06:03:37.346Z,50.31
2017-07-05T06:06:04.890Z,49.31
2017-07-05T06:08:32.505Z,49.50
2017-07-05T06:11:00.096Z,49.00
2017-07-05T06:13:28.052Z,48.56
2017-07-05T06:15:56.558Z,47.57
2017-07-05T06:18:24.144Z,46.44
2017-07-05T06:20:51.705Z,48.16
2017-07-05T06:23:19.300Z,46.60
2017-07-05T06:25:46.925Z,47.11
2017-07-05T06:28:14.504Z,46.95
2017-07-05T06:30:42.127Z,45.85
2017-07-05T06:33:09.648Z,45.42
2017-07-05T06:35:37.428Z,45.09
2017-07-05T06:38:05.054Z,44.24
2017-07-05T06:40:32.614Z,44.28
2017-07-05T06:43:00.234Z,44.11
2017-07-05T06:45:27.998Z,43.81
2017-07-05T06:47:55.626Z,43.78
2017-07-05T06:50:23.179Z,44.17
2017-07-05T06:52:50.808Z,44.19
2017-07-05T06:55:18.417Z,42.61
2017-07-05T06:57:46.014Z,42.22
2017-07-05T07:00:13.686Z,42.53
2017-07-05T07:02:41.290Z,42.53
2017-07-05T07:05:08.909Z,41.36
2017-07-05T07:07:36.508Z,41.32
2017-07-05T07:10:04.130Z,41.43
2017-07-05T07:12:31.890Z,40.59
2017-07-05T07:14:59.481Z,40.71
2017-07-05T07:17:27.045Z,39.07
2017-07-05T07:19:54.637Z,39.27
2017-07-05T07:22:22.219Z,39.52
2017-07-05T07:24:50.503Z,39.55
2017-07-05T07:27:18.123Z,39.73
2017-07-05T07:29:45.721Z,39.96
2017-07-05T07:32:13.297Z,38.13
2017-07-05T07:34:40.884Z,38.84
2017-07-05T07:37:08.442Z,37.96
2017-07-05T07:39:36.104Z,37.95
2017-07-05T07:42:03.762Z,36.97
2017-07-05T07:44:31.316Z,36.53
2017-07-05T07:46:59.503Z,36.17
2017-07-05T07:49:27.085Z,35.00
2017-07-05T07:51:54.618Z,34.74
2017-07-05T07:54:22.230Z,35.05
2017-07-05T07:56:49.799Z,33.94
2017-07-05T07:59:17.415Z,32.99
2017-07-05T08:01:45.029Z,33.18
2017-07-05T08:04:12.562Z,33.51
2017-07-05T08:06:40.116Z,31.54
2017-07-05T08:09:07.707Z,32.96
2017-07-05T08:11:35.513Z,32.39
2017-07-05T08:14:03.143Z,32.05
2017-07-05T08:16:30.763Z,31.69
2017-07-05T08:18:58.345Z,31.35
2017-07-05T08:21:25.889Z,30.83
2017-07-05T08:23:53.492Z,31.12
2017-07-05T08:26:21.253Z,31.05
2017-07-05T08:28:49.098Z,30.86
2017-07-05T08:31:16.907Z,30.19
2017-07-05T08:33:45.261Z,30.35
2017-07-05T08:36:12.809Z,30.67
2017-07-05T08:38:40.487Z,29.26
2017-07-05T08:41:09.438Z,28.22
2017-07-05T08:43:40.415Z,29.18
2017-07-05T08:46:07.996Z,29.61
2017-07-05T08:48:36.075Z,28.43
2017-07-05T08:51:05.065Z,28.69
2017-07-05T08:53:32.675Z,28.36
2017-07-05T08:56:00.277Z,29.09
2017-07-05T08:58:27.851Z,28.51
2017-07-05T09:00:56.416Z,28.74
2017-07-05T09:03:24.823Z,29.23
2017-07-05T09:05:53.382Z,27.68
2017-07-05T09:08:21.034Z,28.06
2017-07-05T09:10:48.598Z,26.87
2017-07-05T09:13:16.147Z,29.50
2017-07-05T09:15:43.910Z,27.00
2017-07-05T09:18:11.449Z,27.17
2017-07-05T09:20:39.577Z,26.83
2017-07-05T09:23:07.545Z,26.30
2017-07-05T09:25:35.214Z,27.28
2017-07-05T09:28:02.825Z,27.22
2017-07-05T09:30:30.405Z,27.69
2017-07-05T09:32:57.990Z,27.39
2017-07-05T09:35:25.559Z,27.50
2017-07-05T09:37:53.555Z,25.91
2017-07-05T09:40:21.170Z,26.12
2017-07-05T09:42:48.725Z,26.66
2017-07-05T09:45:16.339Z,27.55
2017-07-05T09:47:43.954Z,27.05
2017-07-05T09:50:11.538Z,27.99
2017-07-05T09:52:39.157Z,28.75
2017-07-05T09:55:06.713Z,28.21
2017-07-05T09:57:34.307Z,28.53
2017-07-05T10:00:01.949Z,27.85
2017-07-05T10:02:29.612Z,27.70
2017-07-05T10:04:57.210Z,27.52
2017-07-05T10:07:24.742Z,27.17
2017-07-05T10:09:52.342Z,27.76
2017-07-05T10:12:19.946Z,26.76
2017-07-05T10:14:47.689Z,26.97
2017-07-05T10:17:15.308Z,27.71
2017-07-05T10:19:43.067Z,27.23
2017-07-05T10:22:10.682Z,26.54
2017-07-05T10:24:38.319Z,27.30
2017-07-05T10:27:05.950Z,27.57
2017-07-05T10:29:33.716Z,28.69
2017-07-05T10:32:02.118Z,27.82
2017-07-05T10:34:29.862Z,26.94
2017-07-05T10:36:57.682Z,26.01
2017-07-05T10:39:25.278Z,27.00
2017-07-05T10:41:52.810Z,27.39
2017-07-05T10:44:20.380Z,27.01
2017-07-05T10:46:47.985Z,26.78
2017-07-05T10:49:15.564Z,26.77
2017-07-05T10:51:43.128Z,26.27
2017-07-05T10:54:11.019Z,26.74
2017-07-05T10:56:38.580Z,26.22
2017-07-05T10:59:06.329Z,26.43
2017-07-05T11:01:34.350Z,26.54
2017-07-05T11:04:01.901Z,27.40
2017-07-05T11:06:29.529Z,28.66
2017-07-05T11:08:57.110Z,26.72
2017-07-05T11:11:24.748Z,26.88
2017-07-05T11:13:52.346Z,26.38
2017-07-05T11:16:19.924Z,27.51
2017-07-05T11:18:47.490Z,26.71
2017-07-05T11:21:15.067Z,25.85
2017-07-05T11:23:42.720Z,26.09
2017-07-05T11:26:10.323Z,27.51
2017-07-05T11:28:37.939Z,26.24
2017-07-05T11:31:05.529Z,25.78
2017-07-05T11:33:33.130Z,25.59
2017-07-05T11:36:00.710Z,24.13
2017-07-05T11:38:28.314Z,24.77
2017-07-05T11:40:55.976Z,24.84
2017-07-05T11:43:23.846Z,23.22
2017-07-05T11:45:51.452Z,22.95
2017-07-05T11:48:18.985Z,23.66
2017-07-05T11:50:46.493Z,23.76
2017-07-05T11:53:14.081Z,24.20
2017-07-05T11:55:41.651Z,24.47
2017-07-05T11:58:09.258Z,24.65
2017-07-05T12:00:36.850Z,24.56
2017-07-05T12:03:04.680Z,24.43
2017-07-05T12:05:32.271Z,23.43
2017-07-05T12:07:59.881Z,22.79
2017-07-05T12:10:27.433Z,23.26
2017-07-05T12:12:55.102Z,24.31
2017-07-05T12:15:22.721Z,24.33
2017-07-05T12:17:51.014Z,25.91
2017-07-05T12:20:19.229Z,25.14
2017-07-05T12:22:46.817Z,24.42
2017-07-05T12:25:14.405Z,25.28
2017-07-05T12:27:41.976Z,24.62
2017-07-05T12:30:09.639Z,24.96
2017-07-05T12:32:37.218Z,24.38
2017-07-05T12:35:04.859Z,25.13
2017-07-05T12:37:32.512Z,24.99
2017-07-05T12:40:00.104Z,25.47
2017-07-05T12:42:27.701Z,25.52
2017-07-05T12:44:55.306Z,25.73
2017-07-05T12:47:22.912Z,27.25
2017-07-05T12:49:50.493Z,26.36
2017-07-05T12:52:18.152Z,25.29
2017-07-05T12:54:45.685Z,24.77
2017-07-05T12:57:13.520Z,25.14
2017-07-05T12:59:41.160Z,24.60
2017-07-05T13:02:08.798Z,25.96
2017-07-05T13:04:36.350Z,26.66
2017-07-05T13:07:03.929Z,27.26
2017-07-05T13:09:31.510Z,28.14
2017-07-05T13:11:59.067Z,28.18
2017-07-05T13:14:26.635Z,27.94
2017-07-05T13:16:54.246Z,28.16
2017-07-05T13:19:21.782Z,29.03
2017-07-05T13:21:49.376Z,28.66
2017-07-05T13:24:16.974Z,28.66
2017-07-05T13:26:44.622Z,28.31
2017-07-05T13:29:12.238Z,28.97
2017-07-05T13:31:39.890Z,29.65
2017-07-05T13:34:07.481Z,29.17
2017-07-05T13:36:35.095Z,29.91
2017-07-05T13:39:03.173Z,29.81
2017-07-05T13:41:30.783Z,30.26
2017-07-05T13:43:58.352Z,30.23
2017-07-05T13:46:25.948Z,29.95
2017-07-05T13:48:53.771Z,29.58
2017-07-05T13:51:21.338Z,30.19
2017-07-05T13:53:49.128Z,30.66
2017-07-05T13:56:16.754Z,31.04
2017-07-05T13:58:45.157Z,30.63
2017-07-05T14:01:12.742Z,31.02
2017-07-05T14:03:40.481Z,31.22
2017-07-05T14:06:08.055Z,31.50
2017-07-05T14:08:35.634Z,31.29
2017-07-05T14:11:03.204Z,31.29
2017-07-05T14:13:30.779Z,31.42
2017-07-05T14:15:58.380Z,30.90
2017-07-05T14:18:25.966Z,31.00
2017-07-05T14:20:53.522Z,31.05
2017-07-05T14:23:21.172Z,31.05
2017-07-05T14:25:48.700Z,31.46
2017-07-05T14:28:16.262Z,31.13
2017-07-05T14:30:43.854Z,30.59
2017-07-05T14:33:11.602Z,31.34
2017-07-05T14:35:39.342Z,31.97
2017-07-05T14:38:07.485Z,32.32
2017-07-05T14:40:35.394Z,32.22
2017-07-05T14:43:02.953Z,32.20
2017-07-05T14:45:31.030Z,32.16
2017-07-05T14:47:58.566Z,31.75
2017-07-05T14:50:27.049Z,31.56
2017-07-05T14:52:54.999Z,32.33
2017-07-05T14:55:22.577Z,31.95
2017-07-05T14:57:50.150Z,31.77
2017-07-05T15:00:17.851Z,32.21
2017-07-05T15:02:45.411Z,32.29
2017-07-05T15:05:12.962Z,32.49
2017-07-05T15:07:40.592Z,32.70
2017-07-05T15:10:08.216Z,33.08
2017-07-05T15:12:35.790Z,33.46
2017-07-05T15:15:04.080Z,34.79
2017-07-05T15:17:31.692Z,33.82
2017-07-05T15:19:59.263Z,34.01
2017-07-05T15:22:26.961Z,32.92
2017-07-05T15:24:55.309Z,33.99
2017-07-05T15:27:23.117Z,33.81
2017-07-05T15:29:50.707Z,33.02
2017-07-05T15:32:18.904Z,34.17
2017-07-05T15:34:46.513Z,34.48
2017-07-05T15:37:14.148Z,34.53
2017-07-05T15:39:42.581Z,33.62
2017-07-05T15:42:10.240Z,33.76
2017-07-05T15:44:38.659Z,35.50
2017-07-05T15:47:06.281Z,35.13
2017-07-05T15:49:33.922Z,34.08
2017-07-05T15:52:01.498Z,34.29
2017-07-05T15:54:29.102Z,33.92
2017-07-05T15:56:56.739Z,34.32
2017-07-05T15:59:24.362Z,34.17
2017-07-05T16:01:51.933Z,33.92
2017-07-05T16:04:19.514Z,35.30
2017-07-05T16:06:47.282Z,35.33
2017-07-05T16:09:15.060Z,35.56
2017-07-05T16:11:42.662Z,34.58
2017-07-05T16:14:10.313Z,35.43
2017-07-05T16:16:39.276Z,34.12
2017-07-05T16:19:06.815Z,34.00
2017-07-05T16:21:34.373Z,34.30
2017-07-05T16:24:02.229Z,34.49
2017-07-05T16:26:30.303Z,34.68
2017-07-05T16:28:57.867Z,35.01
2017-07-05T16:31:25.483Z,35.08
2017-07-05T16:33:53.062Z,35.38
2017-07-05T16:36:21.862Z,35.32
2017-07-05T16:38:49.454Z,35.29
2017-07-05T16:41:17.578Z,35.76
2017-07-05T16:43:45.164Z,35.84
2017-07-05T16:46:12.828Z,35.86
2017-07-05T16:48:40.370Z,35.51
2017-07-05T16:51:07.982Z,35.49
2017-07-05T16:53:35.588Z,35.81
2017-07-05T16:56:03.169Z,35.85
2017-07-05T16:58:30.749Z,35.88
2017-07-05T17:00:58.319Z,36.53
2017-07-05T17:03:26.753Z,36.51
2017-07-05T17:05:54.398Z,36.75
2017-07-05T17:08:21.986Z,36.82
2017-07-05T17:10:49.643Z,36.91
2017-07-05T17:13:17.197Z,36.90
2017-07-05T17:15:44.846Z,37.29
2017-07-05T17:18:12.434Z,37.35
2017-07-05T17:20:40.014Z,37.57
2017-07-05T17:23:07.680Z,37.78
2017-07-05T17:25:35.230Z,37.96
2017-07-05T17:28:02.765Z,38.17
2017-07-05T17:30:30.538Z,38.26
2017-07-05T17:32:58.139Z,38.61
2017-07-05T17:35:25.726Z,38.56
2017-07-05T17:37:54.198Z,38.53
2017-07-05T17:40:21.726Z,38.73
2017-07-05T17:42:49.318Z,38.77
2017-07-05T17:45:16.990Z,38.90
2017-07-05T17:47:44.595Z,39.55
2017-07-05T17:50:12.151Z,39.71
2017-07-05T17:52:40.071Z,39.54
2017-07-05T17:55:07.704Z,39.99
2017-07-05T17:57:36.241Z,40.27
2017-07-05T18:00:07.623Z,40.22
2017-07-05T18:02:35.462Z,40.67
2017-07-05T18:05:03.028Z,40.64
2017-07-05T18:07:30.634Z,40.76
2017-07-05T18:09:58.222Z,40.45
2017-07-05T18:12:25.755Z,40.93
2017-07-05T18:14:54.022Z,41.16
2017-07-05T18:17:21.632Z,41.84
2017-07-05T18:19:49.890Z,41.60
2017-07-05T18:22:17.598Z,41.74
2017-07-05T18:24:45.138Z,42.32
2017-07-05T18:27:12.697Z,42.68
2017-07-05T18:29:40.529Z,42.20
2017-07-05T18:32:08.123Z,42.53
2017-07-05T18:34:35.681Z,42.56
2017-07-05T18:37:03.247Z,42.90
2017-07-05T18:39:30.830Z,45.73
2017-07-05T18:41:58.353Z,45.01
2017-07-05T18:44:26.142Z,44.75
2017-07-05T18:46:54.064Z,42.86
2017-07-05T18:49:21.702Z,42.84
2017-07-05T18:51:49.302Z,42.18
2017-07-05T18:54:17.075Z,42.67
2017-07-05T18:56:44.705Z,44.58
2017-07-05T18:59:12.510Z,43.48
2017-07-05T19:01:40.150Z,43.91
2017-07-05T19:04:07.732Z,44.31
2017-07-05T19:06:35.346Z,44.32
2017-07-05T19:09:02.968Z,44.46
2017-07-05T19:11:30.552Z,44.74
2017-07-05T19:13:58.135Z,44.86
2017-07-05T19:16:26.070Z,44.90
2017-07-05T19:18:53.817Z,45.77
2017-07-05T19:21:21.412Z,45.37
2017-07-05T19:23:49.019Z,44.58
2017-07-05T19:26:16.641Z,45.46
2017-07-05T19:28:44.270Z,46.46
2017-07-05T19:31:11.898Z,46.88
2017-07-05T19:33:39.569Z,46.52
2017-07-05T19:36:07.192Z,46.05
2017-07-05T19:38:34.816Z,46.66
2017-07-05T19:41:02.379Z,46.86
2017-07-05T19:43:30.570Z,46.93
2017-07-05T19:45:58.701Z,46.98
2017-07-05T19:48:26.304Z,47.23
2017-07-05T19:50:53.877Z,47.63
2017-07-05T19:53:21.589Z,47.76
2017-07-05T19:55:49.142Z,48.66
2017-07-05T19:58:16.730Z,48.99
2017-07-05T20:00:44.481Z,48.79
2017-07-05T20:03:13.481Z,48.92
2017-07-05T20:05:41.980Z,48.53
2017-07-05T20:08:09.604Z,48.40
2017-07-05T20:10:37.244Z,48.47
2017-07-05T20:13:05.019Z,48.58
2017-07-05T20:15:32.593Z,48.30
2017-07-05T20:18:00.178Z,48.33
2017-07-05T20:20:27.961Z,48.54
2017-07-05T20:22:56.971Z,49.01
2017-07-05T20:25:25.391Z,49.12
2017-07-05T20:27:52.996Z,48.83
2017-07-05T20:30:20.597Z,49.06
2017-07-05T20:32:49.044Z,49.00
2017-07-05T20:35:16.650Z,49.63
2017-07-05T20:37:45.097Z,49.83
2017-07-05T20:40:12.718Z,50.01
2017-07-05T20:42:40.984Z,50.31
2017-07-05T20:45:08.735Z,50.32
2017-07-05T20:47:36.522Z,50.26
2017-07-05T20:50:04.126Z,50.20
2017-07-05T20:52:33.050Z,50.54
2017-07-05T20:55:00.629Z,50.48
2017-07-05T20:57:28.246Z,50.39
2017-07-05T20:59:55.898Z,50.53
2017-07-05T21:02:24.910Z,50.51
2017-07-05T21:04:52.485Z,50.63
2017-07-05T21:07:20.072Z,51.49
2017-07-05T21:09:48.640Z,51.52
2017-07-05T21:12:17.629Z,51.40
2017-07-05T21:14:45.695Z,51.35
2017-07-05T21:17:13.581Z,51.48
2017-07-05T21:19:41.285Z,51.71
2017-07-05T21:22:08.886Z,51.94
2017-07-05T21:24:36.517Z,52.10
2017-07-05T21:27:04.483Z,52.54
2017-07-05T21:29:32.061Z,52.67
2017-07-05T21:31:59.668Z,52.64
2017-07-05T21:34:27.430Z,53.15
2017-07-05T21:36:55.067Z,53.07
2017-07-05T21:39:23.992Z,53.51
2017-07-05T21:41:52.480Z,53.87
2017-07-05T21:44:20.130Z,54.15
2017-07-05T21:46:47.787Z,53.51
2017-07-05T21:49:15.335Z,53.63
2017-07-05T21:51:46.199Z,54.00
2017-07-05T21:54:15.481Z,53.78
2017-07-05T21:56:43.047Z,53.31
2017-07-05T21:59:10.921Z,53.93
2017-07-05T22:01:38.523Z,53.36
2017-07-05T22:04:07.479Z,52.53
2017-07-05T22:06:35.058Z,53.75
2017-07-05T22:09:02.687Z,53.86
2017-07-05T22:11:30.271Z,54.56
2017-07-05T22:13:57.936Z,53.63
2017-07-05T22:16:26.848Z,53.81
2017-07-05T22:18:54.479Z,54.25
2017-07-05T22:21:22.775Z,54.38
2017-07-05T22:23:50.512Z,54.09
2017-07-05T22:26:18.370Z,54.04
2017-07-05T22:28:45.963Z,53.60
2017-07-05T22:31:13.603Z,52.78
2017-07-05T22:33:41.162Z,52.48
2017-07-05T22:36:09.186Z,52.86
2017-07-05T22:38:37.693Z,53.33
2017-07-05T22:41:05.822Z,54.06
2017-07-05T22:43:33.453Z,54.32
2017-07-05T22:46:01.696Z,55.38
2017-07-05T22:48:29.268Z,55.83
2017-07-05T22:50:57.591Z,55.97
2017-07-05T22:53:25.217Z,54.87
2017-07-05T22:55:52.789Z,55.71
2017-07-05T22:58:20.481Z,55.37
2017-07-05T23:00:48.114Z,56.28
2017-07-05T23:03:15.646Z,56.05
2017-07-05T23:05:43.134Z,56.69
2017-07-05T23:08:10.739Z,57.12
2017-07-05T23:10:38.577Z,57.00
2017-07-05T23:13:06.806Z,57.60
2017-07-05T23:15:34.545Z,57.75
2017-07-05T23:18:02.098Z,58.49
2017-07-05T23:20:30.424Z,58.61
2017-07-05T23:22:59.181Z,59.40
2017-07-05T23:25:27.428Z,59.63
2017-07-05T23:27:55.048Z,59.49
2017-07-05T23:30:24.238Z,59.01
2017-07-05T23:32:51.809Z,59.16
2017-07-05T23:35:19.398Z,59.16
2017-07-05T23:37:47.027Z,59.41
2017-07-05T23:40:14.560Z,59.66
2017-07-05T23:42:42.086Z,60.28
2017-07-05T23:45:10.034Z,60.37
2017-07-05T23:47:38.243Z,60.88
2017-07-05T23:50:06.174Z,61.15
2017-07-05T23:52:34.561Z,61.92
2017-07-05T23:55:02.181Z,61.96
2017-07-05T23:57:29.745Z,63.19
2017-07-05T23:59:57.334Z,63.25
